Ansbach Army Heliport ETEB

Flugplatz Daten

Name: Ansbach Army Heliport

Ident: ETEB

Lat: 49,30820084

Long: 10,63869953

Platzhöhe: 0 ft

IataCode:

City:

Metar

2021/10/16 16:56
ETEB 161656Z AUTO 03004KT 9999 CLR 10/05 A3013 RMK AO2 SLP225 T00950051 $

Taf

2021/10/15 17:05
TAF ETEB 151700Z 1517/1623 VRB06KT 9999 FEW025 BKN040 QNH3004INS
BECMG 1518/1519 VRB06KT 8000 BR FEW012 BKN015 QNH3009INS
TEMPO 1518/1523 8000 -RA BR FEW008 BKN010
BECMG 1602/1603 VRB06KT 4000 BR FEW008 BKN010 QNH3013INS
BECMG 1607/1608 VRB06KT 9999 NSW SCT020 QNH3014INS
BECMG 1621/1622 VRB06KT 9999 FEW015 BKN025 QNH3016INS TX10/1612Z TN05/1603Z LAST NO
AMDS AFT 1522 NEXT 1809
Gewünschte Webcam nicht vorhanden? Dann fügen Sie eine hinzu. Sie wird dann so schnell wie möglich freigeschaltet
Url: Title: